ASN logo
ASN Wikibase Occurrence # 220599
Last updated: 3 October 2019
This information is added by users of ASN. Neither ASN nor the Flight Safety Foundation are responsible for the completeness or correctness of this information. If you feel this information is incomplete or incorrect, you can submit corrected information.

Date:07-JAN-2019
Time:03:50 UTC
Type:Silhouette image of generic SF34 model; specific model in this crash may look slightly different
Saab 340B
Owner/operator:Airlink/RAF-Avia
Registration: YL-RAF
C/n / msn: 340B-228
Fatalities:Fatalities: 0 / Occupants: 3
Other fatalities:0
Aircraft damage: Minor
Category:Serious incident
Location:Savonlinna Airport (SVL/EFSA) -   Finland
Phase: Landing
Nature:Ferry/positioning
Departure airport:Riga International Airport (RIX/EVRA)
Destination airport:Savonlinna Airport (SVL/EFSA)
Investigating agency: SIAF
Narrative:
An Airlink/ RAF-Avia Saab 340 veered off the runway while landing at Savonlinna Airport in Finland. There were no injuries to the crew members. Reportedly there was some damage to one blade of the left-hand propeller.

Weather reported at Savonlinna Airport about the incident time (0350Z):
EFSA 070450Z AUTO 23005KT 180V270 4300 -SN OVC006 M01/M02 Q1010
EFSA 070350Z 22005KT 170V260 2500 SN BKN005 OVC015 M02/M02 Q1010
EFSA 070320Z 21004KT 180V260 3000 -SN BKN006 OVC017 M02/M02 Q1011

Sources:

https://yle.fi/uutiset/3-10584364
https://www.flightradar24.com/2019-01-07/03:34/12x/MTL650P/1f1a19c1
https://www.iltalehti.fi/kotimaa/a/4f56219e-83e2-4219-8891-e789adcb87e4
https://twitter.com/OTKES_SIAF/status/1082151388795334656
https://www.flightforum.fi/topic/31809-kone-ajautui-ulos-savonlinnassa-kiitotie-suljettu-toistaiseksi/
https://www.is.fi/kotimaa/art-2000005958157.html
https://yle.fi/uutiset/3-10587122
http://www.lentoposti.fi/uutiset/raf_avia_airlinesin_saab_340_ajautui_ulos_kiitotielt_savonlinnassa
http://www.lentoposti.fi/uutiset/savonlinnassa_kiitotielt_suistunut_raf_avian_saab_340_matkustajakone_vaurioitui_merkitt_v_sti


Images:

Photo of YL-RAF courtesy AirHistory.net


Helsinki - Vantaa (EFHK / HEL)
8 May 2018; (c) Pertti Sipilš


Photo: Safety Investigation Authority Finland

Revision history:

Date/timeContributorUpdates
07-Jan-2019 07:47 penu Added
07-Jan-2019 08:24 Dolly564 Updated [Time, Aircraft type, Registration, Cn, Operator, Departure airport, Source, Narrative]
07-Jan-2019 08:37 Dolly564 Updated [Time]
07-Jan-2019 12:33 Dolly564 Updated [Source]
07-Jan-2019 15:42 Dolly564 Updated [Damage, Narrative]
07-Jan-2019 17:11 harro Updated [Narrative, Photo]
07-Jan-2019 17:15 harro Updated [Time, Narrative]
07-Jan-2019 18:49 Dolly564 Updated [Total occupants, Source]
09-Jan-2019 08:43 penu Updated [Source]

Corrections or additions? ... Edit this accident description